Nearby METAR Reports

 

KHIF - Hill Afb/Ogden, Utah, USA
Distance from station: ENE 6mi, 9km
Updated: Sat, 17-Aug-2019 8:58pm MDT
Clear
Clear
 Wind from ESE
Wind: ESE 3 mph , 6 km/h
Temperature: 77°F , 25°C
Dew Point: 36°F , 2°C
Humidity: 22%
Barometer: 29.89 inHg , 1012.2 hPa
Clouds: Clear
Visibility: 10 miles , 16 km
2019/08/18 02:58 KHIF 180258Z AUTO 12003KT 10SM CLR 25/02 A2989 RMK AO2 SLP064 T02480016 55008
KOGD - Ogden, Utah, USA
Distance from station: NNE 9mi, 14km
Updated: Sat, 17-Aug-2019 8:53pm MDT
Clear
Clear
 Wind from E
Wind: E 3 mph , 6 km/h
Temperature: 77°F , 25°C
Dew Point: 36°F , 2°C
Humidity: 22%
Barometer: 29.86 inHg , 1011.2 hPa
Clouds: Clear
Visibility: 10 miles , 16 km
2019/08/18 02:53 KOGD 180253Z AUTO 10003KT 10SM CLR 25/02 A2986 RMK AO2 SLP054 T02500022 55007
 
KSLC - Salt Lake City, Utah, USA
Distance from station: SSE 21mi, 34km
Updated: Sat, 17-Aug-2019 8:54pm MDT
Few Clouds
Few Clouds
 Wind from ESE
Wind: ESE 5 mph , 7 km/h
Temperature: 82°F , 28°C
Dew Point: 36°F , 2°C
Humidity: 19%
Barometer: 29.85 inHg , 1010.8 hPa
Clouds: Few Clouds
Visibility: 10 miles , 16 km
Cloud details: Few Clouds 11000 ft
2019/08/18 02:54 KSLC 180254Z 12004KT 10SM FEW110 28/02 A2985 RMK AO2 SLP048 T02830022 55005 $
KLGU - Logan, Utah, USA
Distance from station: NNE 50mi, 80km
Updated: Sat, 17-Aug-2019 8:51pm MDT
Clear
Clear
 Wind from NNE
Wind: NNE 5 mph , 7 km/h
Temperature: 68°F , 20°C
Dew Point: 45°F , 7°C
Humidity: 43%
Barometer: 29.88 inHg , 1011.9 hPa
Clouds: Clear
Visibility: 10 miles , 16 km
2019/08/18 02:51 KLGU 180251Z AUTO 03004KT 10SM CLR 20/07 A2988 RMK AO2 SLP076 T02000072 53003
 
K36U - Heber/Russ Mcdon, Utah, USA
Distance from station: SE 53mi, 85km
Updated: Wed, 11-Oct-2017 6:50pm MDT
NOT Current
Clear
Clear
 Wind from SSW
Wind: SSW 10 mph , 17 km/h, Gust: 18 mph , 30 km/h
Temperature: 63°F , 17°C
Dew Point: 16°F , -9°C
Humidity: 16%
Barometer: 29.87 inHg , 1011.5 hPa
Clouds: Clear
Visibility: 10 miles , 16 km
2017/10/12 00:50 K36U 120050Z AUTO 21009G16KT 10SM CLR 17/M09 A2987 RMK AO2
KEVW - Evanston, Wyoming, USA
Distance from station: ENE 55mi, 89km
Updated: Sat, 17-Aug-2019 8:53pm MDT
Clear
Clear
 Wind from WSW
Wind: WSW 7 mph , 11 km/h
Temperature: 63°F , 17°C
Dew Point: 28°F , -2°C
Humidity: 27%
Barometer: 30.09 inHg , 1019 hPa
Clouds: Clear
Visibility: 10 miles , 16 km
2019/08/18 02:53 KEVW 180253Z AUTO 24006KT 10SM CLR 17/M02 A3009 RMK AO2 SLP100 T01721022 53001
 
KPVU - Provo Muni, Utah, USA
Distance from station: SSE 62mi, 100km
Updated: Sat, 17-Aug-2019 8:56pm MDT
Clear
Clear
 Wind from WNW
Wind: WNW 8 mph , 13 km/h
Temperature: 75°F , 24°C
Dew Point: 57°F , 14°C
Humidity: 54%
Barometer: 29.88 inHg , 1011.9 hPa
Clouds: Clear
Visibility: 8 miles , 13 km
2019/08/18 02:56 KPVU 180256Z AUTO 30007KT 8SM CLR 24/14 A2988 RMK AO2 SLP063 T02440139 55001
KDPG - Dugway Prvg Grou, Utah, USA
Distance from station: SW 75mi, 121km
Updated: Fri, 16-Aug-2019 11:55am MDT
NOT Current
Few Clouds
Few Clouds
 Wind from varies
Wind: varies 3 mph , 6 km/h
Temperature: 86°F , 30°C
Dew Point: 36°F , 2°C
Humidity: 17%
Barometer: 30.05 inHg , 1017.6 hPa
Clouds: Few Clouds
Visibility: 45 miles , 72 km
Cloud details: Few Clouds 16000 ft
2019/08/16 17:55 KDPG 161755Z VRB03KT 45SM FEW160 30/02 A3005 RMK SLP120 T03000016 10307 20138 58010 LAST
 
KENV - Wendover (aut), Utah, USA
Distance from station: WSW 105mi, 169km
Updated: Sat, 17-Aug-2019 8:56pm MDT
Clear
Clear
 Wind from NW
Wind: NW 8 mph , 13 km/h
Temperature: 86°F , 30°C
Dew Point: 28°F , -2°C
Humidity: 12%
Barometer: 29.84 inHg , 1010.5 hPa
Clouds: Clear
Visibility: 10 miles , 16 km
2019/08/18 02:56 KENV 180256Z AUTO 32007KT 10SM CLR 30/M02 A2984 RMK AO2 SLP058 T03001022 55000
KPUC - Price, Utah, USA
Distance from station: SE 123mi, 197km
Updated: Sat, 17-Aug-2019 8:53pm MDT
Clear
Clear
 Wind from NNW
Wind: NNW 5 mph , 7 km/h
Temperature: 75°F , 24°C
Dew Point: 30°F , -1°C
Humidity: 19%
Barometer: 29.97 inHg , 1014.9 hPa
Clouds: Clear
Visibility: 10 miles , 16 km
2019/08/18 02:53 KPUC 180253Z AUTO 33004KT 10SM CLR 24/M01 A2997 RMK AO2 SLP058 T02441006 53003
 
KPIH - Pocatello, Idaho, USA
Distance from station: NNW 130mi, 208km
Updated: Sat, 17-Aug-2019 8:53pm MDT
Clear
Clear
 Wind from SSW
Wind: SSW 16 mph , 26 km/h
Temperature: 73°F , 23°C
Dew Point: 32°F , 0°C
Humidity: 22%
Barometer: 29.88 inHg , 1011.9 hPa
Clouds: Clear
Visibility: 10 miles , 16 km
2019/08/18 02:53 KPIH 180253Z 21014KT 10SM CLR 23/00 A2988 RMK AO2 SLP072 T02280000 55003
KBYI - Burley, Idaho, USA
Distance from station: NW 134mi, 216km
Updated: Sat, 17-Aug-2019 8:53pm MDT
Clear
Clear
 Wind from SSW
Wind: SSW 8 mph , 13 km/h
Temperature: 64°F , 18°C
Dew Point: 45°F , 7°C
Humidity: 49%
Barometer: 29.88 inHg , 1011.9 hPa
Clouds: Clear
Visibility: 10 miles , 16 km
2019/08/18 02:53 KBYI 180253Z AUTO 20007KT 10SM CLR 18/07 A2988 RMK AO2 SLP084 T01780067 53001
 
KVEL - Vernal, Utah, USA
Distance from station: ESE 140mi, 226km
Updated: Sat, 17-Aug-2019 8:53pm MDT
Clear
Clear
 Wind from W
Wind: W 9 mph , 15 km/h
Temperature: 79°F , 26°C
Dew Point: 32°F , 0°C
Humidity: 18%
Barometer: 29.92 inHg , 1013.2 hPa
Clouds: Clear
Visibility: 10 miles , 16 km
2019/08/18 02:53 KVEL 180253Z AUTO 26008KT 10SM CLR 26/00 A2992 RMK AO2 SLP061 T02610000 53010
KBPI - Big Piney, Wyoming, USA
Distance from station: NE 145mi, 234km
Updated: Sat, 17-Aug-2019 8:53pm MDT
Clear
Clear
 Wind from N
Wind: N 3 mph , 6 km/h
Temperature: 59°F , 15°C
Dew Point: 21°F , -6°C
Humidity: 23%
Barometer: 30.06 inHg , 1017.9 hPa
Clouds: Clear
Visibility: 10 miles , 16 km
2019/08/18 02:53 KBPI 180253Z AUTO 35003KT 10SM CLR 15/M06 A3006 RMK AO2 SLP101 T01501061 53006